Eiwa Maru — JG5742 — position and weather

sailwx.info

Track history (hours):
 
Tides and Currents Weather Stations Pressure Air Temp Water Temp Dewpoint Dewpoint Depression Visibility Wind Speed Wind Dir Waves Ship Positions

Eiwa Maru

Last reported at 2017-Aug-19 23:05 UTC. Time now 2017-Aug-20 00:27 UTC.
Position N 35°32' E 140°03'.

Length 80 m; draft 5.4 m.

Type: Ship (hazmat cat A). MMSI: 431101045.

Date/timePositionNaut miles runAvg speedWind from/ knotsBaromVisibWave heightAir tempDewpointWater temp
2017-Aug-19 23:05N 35°32' E 140°03'0 2.1
2017-Aug-19 22:58N 35°32' E 140°03'2 2.2
2017-Aug-19 22:17N 35°33' E 140°02'0 0.9
2017-Aug-19 22:00N 35°33' E 140°02'4 0.1
2017-Aug-18 01:53N 35°36' E 140°07'1 2.7
2017-Aug-18 01:29N 35°35' E 140°05'4 8.6
2017-Aug-18 01:00N 35°34' E 140°01'5 9.1
2017-Aug-18 00:28N 35°31' E 139°56'4 9.4
2017-Aug-18 00:00N 35°30' E 139°51'0 0.1
2017-Aug-17 23:30N 35°30' E 139°51'0 0.0
2017-Aug-17 23:00N 35°30' E 139°51'0 0.0
2017-Aug-17 22:30N 35°30' E 139°51'0 0.0
2017-Aug-17 22:00N 35°30' E 139°51'0 0.0
2017-Aug-17 21:30N 35°30' E 139°51'0 0.0
2017-Aug-17 21:00N 35°30' E 139°51'0 0.0
2017-Aug-17 20:30N 35°30' E 139°51'0 0.0
2017-Aug-17 20:00N 35°30' E 139°51'0 0.0
2017-Aug-17 19:30N 35°30' E 139°51'0 0.0
2017-Aug-17 19:00N 35°30' E 139°51'0 0.0
2017-Aug-17 18:30N 35°30' E 139°51'0 0.0
2017-Aug-17 18:00N 35°30' E 139°51'0 0.0
2017-Aug-17 17:30N 35°30' E 139°51'0 0.0
2017-Aug-17 17:00N 35°30' E 139°51'0 0.0
2017-Aug-17 16:30N 35°30' E 139°51'0 0.0
2017-Aug-17 16:00N 35°30' E 139°51'0 0.1
2017-Aug-17 15:30N 35°30' E 139°51'0 0.0
2017-Aug-17 15:00N 35°30' E 139°51'0 0.0
2017-Aug-17 14:30N 35°30' E 139°51'3 5.5
2017-Aug-17 14:00N 35°28' E 139°49'713.2
2017-Aug-17 13:30N 35°22' E 139°45'611.2
2017-Aug-17 13:00N 35°16' E 139°46'612.1
2017-Aug-17 12:30N 35°10' E 139°46'612.6
2017-Aug-17 12:00N 35°04' E 139°44'713.1
2017-Aug-17 11:29N 35°00' E 139°38'  
2017-Aug-14 14:39N 34°37' E 135°01'215.1
2017-Aug-14 14:30N 34°36' E 135°03'611.6
2017-Aug-14 13:57N 34°30' E 135°03'1712.7
2017-Aug-14 12:38N 34°13' E 134°60'211.4
2017-Aug-14 12:30N 34°12' E 134°60'22410.0
2017-Aug-13 14:01N 34°59' E 139°26'013.5
2017-Aug-13 13:59N 34°59' E 139°27'612.8
2017-Aug-13 13:30N 35°02' E 139°33'612.7
2017-Aug-13 13:00N 35°06' E 139°40'612.2
2017-Aug-13 12:30N 35°10' E 139°45'611.9
2017-Aug-13 12:00N 35°16' E 139°45'612.4
2017-Aug-13 11:30N 35°22' E 139°42'612.5
2017-Aug-13 11:00N 35°27' E 139°47'612.9
2017-Aug-13 10:30N 35°30' E 139°54'7 0.8
2017-Aug-13 02:04N 35°33' E 140°02'0 0.0
2017-Aug-13 01:49N 35°33' E 140°02'0 0.0
2017-Aug-13 01:20N 35°33' E 140°02'0 0.0
2017-Aug-13 00:57N 35°33' E 140°02'0 0.0
2017-Aug-13 00:30N 35°33' E 140°02'6 0.9
2017-Aug-12 18:06N 35°31' E 139°55'113.3
2017-Aug-12 18:00N 35°30' E 139°54'713.3
2017-Aug-12 17:30N 35°25' E 139°48'612.6
2017-Aug-12 17:00N 35°20' E 139°44'612.0
2017-Aug-12 16:30N 35°14' E 139°47'612.2
2017-Aug-12 16:00N 35°08' E 139°46'613.0
2017-Aug-12 15:30N 35°03' E 139°42'813.5
2017-Aug-12 14:54N 34°58' E 139°34'23211.8
2017-Aug-11 19:11N 34°06' E 134°60'315.1
2017-Aug-11 19:00N 34°08' E 134°59'815.3
2017-Aug-11 18:29N 34°16' E 134°59'814.0
2017-Aug-11 17:54N 34°24' E 135°00'514.1
2017-Aug-11 17:30N 34°30' E 135°01'713.1
2017-Aug-11 17:01N 34°36' E 135°02'2 0.0
2017-Aug-10 04:55N 34°37' E 135°01'410.3
2017-Aug-10 04:31N 34°35' E 135°05'2212.7
2017-Aug-10 02:47N 34°13' E 134°60'413.2
2017-Aug-10 02:28N 34°09' E 135°00'  
Track history (hours):
 
Tides and Currents Weather Stations Pressure Air Temp Water Temp Dewpoint Dewpoint Depression Visibility Wind Speed Wind Dir Waves Ship Positions

Eiwa Maru

Last reported at 2017-Aug-19 23:05 UTC. Time now 2017-Aug-20 00:27 UTC.
Position N 35°32' E 140°03'.

Length 80 m; draft 5.4 m.

Type: Ship (hazmat cat A). MMSI: 431101045.

Date/timePositionNaut miles runAvg speedWind from/ knotsBaromVisibWave heightAir tempDewpointWater temp
2017-Aug-19 23:05N 35°32' E 140°03'0 2.1
2017-Aug-19 22:58N 35°32' E 140°03'2 2.2
2017-Aug-19 22:17N 35°33' E 140°02'0 0.9
2017-Aug-19 22:00N 35°33' E 140°02'4 0.1
2017-Aug-18 01:53N 35°36' E 140°07'1 2.7
2017-Aug-18 01:29N 35°35' E 140°05'4 8.6
2017-Aug-18 01:00N 35°34' E 140°01'5 9.1
2017-Aug-18 00:28N 35°31' E 139°56'4 9.4
2017-Aug-18 00:00N 35°30' E 139°51'0 0.1
2017-Aug-17 23:30N 35°30' E 139°51'0 0.0
2017-Aug-17 23:00N 35°30' E 139°51'0 0.0
2017-Aug-17 22:30N 35°30' E 139°51'0 0.0
2017-Aug-17 22:00N 35°30' E 139°51'0 0.0
2017-Aug-17 21:30N 35°30' E 139°51'0 0.0
2017-Aug-17 21:00N 35°30' E 139°51'0 0.0
2017-Aug-17 20:30N 35°30' E 139°51'0 0.0
2017-Aug-17 20:00N 35°30' E 139°51'0 0.0
2017-Aug-17 19:30N 35°30' E 139°51'0 0.0
2017-Aug-17 19:00N 35°30' E 139°51'0 0.0
2017-Aug-17 18:30N 35°30' E 139°51'0 0.0
2017-Aug-17 18:00N 35°30' E 139°51'0 0.0
2017-Aug-17 17:30N 35°30' E 139°51'0 0.0
2017-Aug-17 17:00N 35°30' E 139°51'0 0.0
2017-Aug-17 16:30N 35°30' E 139°51'0 0.0
2017-Aug-17 16:00N 35°30' E 139°51'0 0.1
2017-Aug-17 15:30N 35°30' E 139°51'0 0.0
2017-Aug-17 15:00N 35°30' E 139°51'0 0.0
2017-Aug-17 14:30N 35°30' E 139°51'3 5.5
2017-Aug-17 14:00N 35°28' E 139°49'713.2
2017-Aug-17 13:30N 35°22' E 139°45'611.2
2017-Aug-17 13:00N 35°16' E 139°46'612.1
2017-Aug-17 12:30N 35°10' E 139°46'612.6
2017-Aug-17 12:00N 35°04' E 139°44'713.1
2017-Aug-17 11:29N 35°00' E 139°38'  
2017-Aug-14 14:39N 34°37' E 135°01'215.1
2017-Aug-14 14:30N 34°36' E 135°03'611.6
2017-Aug-14 13:57N 34°30' E 135°03'1712.7
2017-Aug-14 12:38N 34°13' E 134°60'211.4
2017-Aug-14 12:30N 34°12' E 134°60'22410.0
2017-Aug-13 14:01N 34°59' E 139°26'013.5
2017-Aug-13 13:59N 34°59' E 139°27'612.8
2017-Aug-13 13:30N 35°02' E 139°33'612.7
2017-Aug-13 13:00N 35°06' E 139°40'612.2
2017-Aug-13 12:30N 35°10' E 139°45'611.9
2017-Aug-13 12:00N 35°16' E 139°45'612.4
2017-Aug-13 11:30N 35°22' E 139°42'612.5
2017-Aug-13 11:00N 35°27' E 139°47'612.9
2017-Aug-13 10:30N 35°30' E 139°54'7 0.8
2017-Aug-13 02:04N 35°33' E 140°02'0 0.0
2017-Aug-13 01:49N 35°33' E 140°02'0 0.0
2017-Aug-13 01:20N 35°33' E 140°02'0 0.0
2017-Aug-13 00:57N 35°33' E 140°02'0 0.0
2017-Aug-13 00:30N 35°33' E 140°02'6 0.9
2017-Aug-12 18:06N 35°31' E 139°55'113.3
2017-Aug-12 18:00N 35°30' E 139°54'713.3
2017-Aug-12 17:30N 35°25' E 139°48'612.6
2017-Aug-12 17:00N 35°20' E 139°44'612.0
2017-Aug-12 16:30N 35°14' E 139°47'612.2
2017-Aug-12 16:00N 35°08' E 139°46'613.0
2017-Aug-12 15:30N 35°03' E 139°42'813.5
2017-Aug-12 14:54N 34°58' E 139°34'23211.8
2017-Aug-11 19:11N 34°06' E 134°60'315.1
2017-Aug-11 19:00N 34°08' E 134°59'815.3
2017-Aug-11 18:29N 34°16' E 134°59'814.0
2017-Aug-11 17:54N 34°24' E 135°00'514.1
2017-Aug-11 17:30N 34°30' E 135°01'713.1
2017-Aug-11 17:01N 34°36' E 135°02'2 0.0
2017-Aug-10 04:55N 34°37' E 135°01'410.3
2017-Aug-10 04:31N 34°35' E 135°05'2212.7
2017-Aug-10 02:47N 34°13' E 134°60'413.2
2017-Aug-10 02:28N 34°09' E 135°00'  

Dump ship's entire track history